• Join FlightAware (Why Join?)
  • Login
  • US Flag 
03:44PM EDT


 

Airport Tracker/Info


-or-


 

Live Flight TrackerFlight Track Log ✈ DAL6201 ✈ 15-Apr-2013 ✈ KPIT - KLGA

Flight Track Log - Related Links

Times and Time Zones

All times are in EDT time to prevent confusion due to time zone crossing. See the DAL6201 flight status page for this flight to view local times or setup timezone preferences in your user account.

Time Position Orientation Groundspeed Altitude Reporting Facility
EDT Latitude Longitude Course Direction KTS MPH feet Rate Location/Type
07:11PM 40.4889 -80.2175 88° East 167 192 1,700  Level FAA TRACON SMA TRACON (SMA)
07:11PM 40.4894 -80.1933 88° East 173 199 2,900 3,120 Climbing FAA TRACON SMA TRACON (SMA)
07:12PM 40.4917 -80.1750 81° East 176 203 3,800 2,700 Climbing FAA TRACON SMA TRACON (SMA)
07:12PM 40.4925 -80.1517 87° East 186 214 4,700 1,800 Climbing FAA TRACON SMA TRACON (SMA)
07:12PM 40.4947 -80.1200 85° East 234 269 5,000 420 Climbing FAA TRACON SMA TRACON (SMA)
07:13PM 40.4964 -80.0908 86° East 265 305 5,000 300 Level FAA TRACON SMA TRACON (SMA)
07:13PM 40.4986 -80.0606 84° East 274 315 5,200 2,100 Climbing FAA TRACON SMA TRACON (SMA)
07:13PM 40.5042 -80.0211 79° East 284 327 6,400 3,060 Climbing FAA TRACON SMA TRACON (SMA)
07:14PM 40.5086 -79.9897 79° East 285 328 7,200 2,520 Climbing FAA TRACON SMA TRACON (SMA)
07:14PM 40.5131 -79.9569 80° East 290 334 8,100 2,820 Climbing FAA TRACON SMA TRACON (SMA)
07:14PM 40.5186 -79.9156 80° East 297 342 9,100 2,400 Climbing FAA TRACON SMA TRACON (SMA)
07:15PM 40.5236 -79.8842 78° East 303 349 9,700 2,160 Climbing FAA TRACON SMA TRACON (SMA)
07:15PM 40.5275 -79.8458 82° East 312 359 10,600 2,100 Climbing FAA TRACON SMA TRACON (SMA)
07:15PM 40.5339 -79.7992 80° East 333 383 11,100 1,320 Climbing FAA TRACON SMA TRACON (SMA)
07:16PM 40.5419 -79.7608 75° East 354 407 11,500 1,620 Climbing FAA TRACON SMA TRACON (SMA)
07:16PM 40.5450 -79.7183 85° East 369 425 12,200 2,400 Climbing FAA TRACON SMA TRACON (SMA)
07:16PM 40.5525 -79.6667 79° East 375 432 13,100 2,340 Climbing FAA TRACON SMA TRACON (SMA)
07:17PM 40.5581 -79.6253 80° East 383 441 13,800 2,280 Climbing FAA TRACON SMA TRACON (SMA)
07:17PM 40.5642 -79.5831 79° East 379 436 14,600 2,400 Climbing FAA TRACON SMA TRACON (SMA)
07:17PM 40.5764 -79.5344 72° East 381 438 15,400 2,220 Climbing FAA TRACON SMA TRACON (SMA)
07:18PM 40.5769 -79.4875 89° East 383 441 16,100 1,920 Climbing FAA TRACON SMA TRACON (SMA)
07:18PM 40.5828 -79.4442 80° East 386 444 16,700 1,860 Climbing FAA TRACON SMA TRACON (SMA)
07:18PM 40.5931 -79.3939 75° East 391 450 17,400 1,680 Climbing FAA TRACON SMA TRACON (SMA)
07:19PM 40.6006 -79.3525 77° East 380 437 17,800 1,500 Climbing Cleveland Center
07:20PM 40.6217 -79.2017 80° East 391 450 19,400 1,560 Climbing Cleveland Center
07:21PM 40.6425 -79.0453 80° East 414 476 21,000 1,560 Climbing Cleveland Center
07:22PM 40.6739 -78.8939 75° East 428 493 22,600 1,500 Climbing Cleveland Center
07:23PM 40.7575 -78.7767 47° Northeast 411 473 24,100 1,380 Climbing Cleveland Center
07:24PM 40.8433 -78.6619 45° Northeast 423 487 25,400 1,200 Climbing Cleveland Center
07:25PM 40.9328 -78.5383 46° Northeast 443 510 26,600 780 Climbing Cleveland Center
07:26PM 41.0244 -78.4142 46° Northeast 454 522 27,000 120 Climbing Cleveland Center
07:27PM 41.1333 -78.2564 47° Northeast 486 559 27,000  Level New York Center
07:28PM 41.2006 -78.1122 58° Northeast 481 554 27,000  Level New York Center
07:29PM 41.1864 -77.9342 96° East 449 517 27,000  Level New York Center
07:30PM 41.1658 -77.7556 99° East 455 524 27,000  Level New York Center
07:31PM 41.1428 -77.5794 100° East 471 542 27,000  Level New York Center
07:32PM 41.1214 -77.4064 99° East 476 548 27,000  Level New York Center
07:33PM 41.0961 -77.2194 100° East 471 542 27,000 -360 Level New York Center
07:34PM 41.0739 -77.0550 100° East 466 536 26,300 -1,320 Descending New York Center
07:35PM 41.0531 -76.8961 100° East 452 520 24,500 -1,800 Descending New York Center
07:36PM 41.0314 -76.7456 101° East 433 498 22,700 -1,680 Descending New York Center
07:37PM 41.0053 -76.6003 103° East 420 483 21,100 -1,500 Descending New York Center
07:38PM 40.9744 -76.4631 107° East 403 464 19,800 -1,320 Descending New York Center
07:39PM 40.9467 -76.3478 108° East 379 436 18,500 -900 Descending New York Center
07:40PM 40.9150 -76.2217 108° East 368 423 18,000 -780 Descending New York Center
07:41PM 40.8819 -76.0792 107° East 367 422 17,000 -1,320 Descending New York Center
07:42PM 40.8536 -75.9644 108° East 372 428 15,400 -1,680 Descending New York Center
07:43PM 40.8200 -75.8303 108° East 359 413 13,700 -1,200 Descending New York Center
07:44PM 40.7917 -75.7131 108° East 348 400 13,000 -360 Descending New York Center
07:45PM 40.7647 -75.6069 109° East 337 388 13,000  Level New York Center
07:46PM 40.7342 -75.4842 108° East 343 395 13,000  Level New York Center
07:47PM 40.7058 -75.3564 106° East 355 409 13,000 -480 Level New York Center
07:48PM 40.6797 -75.2206 104° East 355 409 12,100 -1,020 Descending New York Center
07:49PM 40.6439 -75.1225 116° Southeast 338 389 11,000 -1,140 Descending New York Center
07:50PM 40.5767 -75.0197 131° Southeast 333 383 9,900 -600 Descending New York Center
07:51PM 40.5411 -74.9111 113° Southeast 323 372 9,900 60 Level New York Center
07:51PM 40.5333 -74.8667 103° East 325 374 10,000 60 Climbing New York TRACON
07:52PM 40.5000 -74.7500 111° Southeast 327 376 10,000  Level New York TRACON
07:53PM 40.4667 -74.6500 114° Southeast 328 377 10,000  Level New York TRACON
07:54PM 40.4333 -74.5333 111° Southeast 329 379 10,000  Level New York TRACON
07:55PM 40.4667 -74.4167 69° East 336 387 10,000 -120 Level New York TRACON
07:56PM 40.4833 -74.3167 78° East 301 346 9,800 -780 Descending New York TRACON
07:57PM 40.5167 -74.2167 66° East 288 331 8,500 -1,440 Descending New York TRACON
07:58PM 40.5667 -74.1167 57° Northeast 292 336 7,000 -1,500 Descending New York TRACON
07:59PM 40.6333 -74.0667 30° Northeast 290 334 5,500 -1,440 Descending New York TRACON
08:00PM 40.7000 -74.0333 21° North 272 313 4,100 -1,200 Descending New York TRACON
08:01PM 40.7833 -74.0000 17° North 263 303 3,000 -600 Descending New York TRACON
08:02PM 40.8333 -73.9500 37° Northeast 261 300 3,000  Level New York TRACON
08:03PM 40.8833 -73.9000 37° Northeast 232 267 3,000 -480 Level New York TRACON
08:04PM 40.9000 -73.8333 72° East 185 213 2,100 -600 Descending New York TRACON
08:05PM 40.8667 -73.8000 143° Southeast 146 168 1,900 -420 Descending New York TRACON
08:06PM 40.8333 -73.8333 217° Southwest 132 152 1,300 -660 Descending New York TRACON
08:07PM 40.8000 -73.8500 201° Southwest 133 153 600 -720 Descending New York TRACON
08:09PM 40.7667 -73.8667 191° South  Level FlightAware Approximate
08:16PM 40.7772 -73.8726 191° South  Level Estimated
08:17PM 40.7772 -73.8726 191° South  Level Estimated